createdAt,value
2018-02-16T00:00:07.986Z,0
2018-02-16T00:00:48.359Z,0
2018-02-16T00:01:28.764Z,0
2018-02-16T00:02:09.174Z,0
2018-02-16T00:02:49.509Z,0
2018-02-16T00:03:29.942Z,0
2018-02-16T00:04:10.416Z,0
2018-02-16T00:04:50.830Z,0
2018-02-16T00:05:31.215Z,0
2018-02-16T00:06:11.591Z,0
2018-02-16T00:06:51.994Z,0
2018-02-16T00:07:32.374Z,0
2018-02-16T00:08:12.798Z,0
2018-02-16T00:08:53.172Z,0
2018-02-16T00:09:33.593Z,0
2018-02-16T00:10:13.978Z,0
2018-02-16T00:10:54.349Z,0
2018-02-16T00:11:34.715Z,0
2018-02-16T00:12:15.110Z,0
2018-02-16T00:12:55.533Z,0
2018-02-16T00:13:35.913Z,0
2018-02-16T00:14:16.392Z,0
2018-02-16T00:14:56.745Z,0
2018-02-16T00:15:37.207Z,0
2018-02-16T00:16:17.600Z,0
2018-02-16T00:16:58.117Z,0
2018-02-16T00:17:38.517Z,0
2018-02-16T00:18:18.930Z,0
2018-02-16T00:18:59.356Z,0
2018-02-16T00:19:39.836Z,0
2018-02-16T00:20:20.249Z,0
2018-02-16T00:21:00.685Z,0
2018-02-16T00:21:41.066Z,0
2018-02-16T00:22:21.444Z,0
2018-02-16T00:23:01.830Z,0
2018-02-16T00:23:42.251Z,0
2018-02-16T00:24:22.626Z,0
2018-02-16T00:25:03.018Z,0
2018-02-16T00:25:43.377Z,0
2018-02-16T00:26:23.811Z,0
2018-02-16T00:27:04.210Z,0
2018-02-16T00:27:44.632Z,0
2018-02-16T00:28:24.994Z,0
2018-02-16T00:29:05.413Z,0
2018-02-16T00:29:45.833Z,0
2018-02-16T00:30:26.296Z,0
2018-02-16T00:31:06.673Z,0
2018-02-16T00:31:47.049Z,0
2018-02-16T00:32:27.389Z,0
2018-02-16T00:33:07.918Z,0
2018-02-16T00:33:48.284Z,0
2018-02-16T00:34:28.736Z,0
2018-02-16T00:35:09.075Z,0
2018-02-16T00:35:49.627Z,0
2018-02-16T00:36:30.007Z,0
2018-02-16T00:37:10.529Z,0
2018-02-16T00:37:50.902Z,0
2018-02-16T00:38:31.270Z,0
2018-02-16T00:39:11.693Z,0
2018-02-16T00:39:52.078Z,0
2018-02-16T00:40:32.414Z,0
2018-02-16T00:41:12.841Z,0
2018-02-16T00:41:53.164Z,0
2018-02-16T00:42:33.602Z,0
2018-02-16T00:43:14.036Z,0
2018-02-16T00:43:54.347Z,0
2018-02-16T00:44:34.839Z,0
2018-02-16T00:45:15.230Z,0
2018-02-16T00:45:55.598Z,0
2018-02-16T00:46:36.040Z,0
2018-02-16T00:47:16.328Z,0
2018-02-16T00:47:56.764Z,0
2018-02-16T00:48:37.167Z,0
2018-02-16T00:49:17.530Z,0
2018-02-16T00:49:57.910Z,0
2018-02-16T00:50:38.295Z,0
2018-02-16T00:51:18.819Z,0
2018-02-16T00:51:59.085Z,0
2018-02-16T00:52:39.544Z,0
2018-02-16T00:53:19.955Z,0
2018-02-16T00:54:00.285Z,0
2018-02-16T00:54:40.705Z,0
2018-02-16T00:55:21.062Z,0
2018-02-16T00:56:01.437Z,0
2018-02-16T00:56:41.844Z,0
2018-02-16T00:57:22.302Z,0
2018-02-16T00:58:02.675Z,0
2018-02-16T00:58:43.078Z,0
2018-02-16T00:59:23.499Z,0
2018-02-16T01:00:03.901Z,0
2018-02-16T01:00:44.306Z,0
2018-02-16T01:01:24.680Z,0
2018-02-16T01:02:05.075Z,0
2018-02-16T01:02:45.465Z,0
2018-02-16T01:03:25.832Z,0
2018-02-16T01:04:06.246Z,0
2018-02-16T01:04:46.664Z,0
2018-02-16T01:05:27.056Z,0
2018-02-16T01:06:07.433Z,0
2018-02-16T01:06:47.868Z,0
2018-02-16T01:07:28.206Z,0
2018-02-16T01:08:08.632Z,0
2018-02-16T01:08:48.979Z,0
2018-02-16T01:09:29.394Z,0
2018-02-16T01:10:09.722Z,0
2018-02-16T01:10:50.218Z,0
2018-02-16T01:11:30.562Z,0
2018-02-16T01:12:10.979Z,0
2018-02-16T01:12:51.399Z,0
2018-02-16T01:13:31.870Z,0
2018-02-16T01:14:12.165Z,0
2018-02-16T01:14:52.652Z,0
2018-02-16T01:15:32.989Z,0
2018-02-16T01:16:13.348Z,0
2018-02-16T01:16:53.733Z,0
2018-02-16T01:17:34.151Z,0
2018-02-16T01:18:14.563Z,0
2018-02-16T01:18:54.894Z,0
2018-02-16T01:19:35.397Z,0
2018-02-16T01:20:15.719Z,0
2018-02-16T01:20:56.146Z,0
2018-02-16T01:21:36.556Z,0
2018-02-16T01:22:16.883Z,0
2018-02-16T01:22:57.335Z,0
2018-02-16T01:23:37.770Z,0
2018-02-16T01:24:18.128Z,0
2018-02-16T01:24:58.520Z,0
2018-02-16T01:25:38.925Z,0
2018-02-16T01:26:19.343Z,0
2018-02-16T01:26:59.750Z,0
2018-02-16T01:27:40.121Z,0
2018-02-16T01:28:20.526Z,0
2018-02-16T01:29:00.901Z,0
2018-02-16T01:29:41.296Z,0
2018-02-16T01:30:21.643Z,0
2018-02-16T01:31:02.133Z,0
2018-02-16T01:31:42.513Z,0
2018-02-16T01:32:22.862Z,0
2018-02-16T01:33:03.269Z,0
2018-02-16T01:33:43.726Z,0
2018-02-16T01:34:24.110Z,0
2018-02-16T01:35:04.473Z,0
2018-02-16T01:35:44.897Z,0
2018-02-16T01:36:25.260Z,0
2018-02-16T01:37:05.665Z,0
2018-02-16T01:37:46.136Z,0
2018-02-16T01:38:26.468Z,0
2018-02-16T01:39:06.989Z,0
2018-02-16T01:39:47.228Z,0
2018-02-16T01:40:27.693Z,0
2018-02-16T01:41:08.096Z,0
2018-02-16T01:41:48.471Z,0
2018-02-16T01:42:28.852Z,0
2018-02-16T01:43:09.290Z,0
2018-02-16T01:43:49.712Z,0
2018-02-16T01:44:30.100Z,0
2018-02-16T01:45:10.408Z,0
2018-02-16T01:45:50.824Z,0
2018-02-16T01:46:31.235Z,0
2018-02-16T01:47:11.583Z,0
2018-02-16T01:47:52.024Z,0
2018-02-16T01:48:32.368Z,0
2018-02-16T01:49:12.804Z,0
2018-02-16T01:49:53.115Z,0
2018-02-16T01:50:33.522Z,0
2018-02-16T01:51:13.970Z,0
2018-02-16T01:51:54.305Z,0
2018-02-16T01:52:34.836Z,0
2018-02-16T01:53:15.152Z,0
2018-02-16T01:53:55.597Z,0
2018-02-16T01:54:36.018Z,0
2018-02-16T01:55:16.321Z,0
2018-02-16T01:55:56.720Z,0
2018-02-16T01:56:37.117Z,0
2018-02-16T01:57:17.599Z,0
2018-02-16T01:57:58.019Z,0
2018-02-16T01:58:38.470Z,0
2018-02-16T01:59:18.875Z,0
2018-02-16T01:59:59.292Z,0
2018-02-16T02:00:39.649Z,0
2018-02-16T02:01:20.082Z,0
2018-02-16T02:02:00.445Z,0
2018-02-16T02:02:40.832Z,0
2018-02-16T02:03:21.217Z,0
2018-02-16T02:04:01.698Z,0
2018-02-16T02:04:42.178Z,0
2018-02-16T02:05:22.571Z,0
2018-02-16T02:06:02.975Z,0
2018-02-16T02:06:43.339Z,0
2018-02-16T02:07:23.761Z,0
2018-02-16T02:08:04.259Z,0
2018-02-16T02:08:44.592Z,0
2018-02-16T02:09:25.043Z,0
2018-02-16T02:10:05.355Z,0
2018-02-16T02:10:45.714Z,0
2018-02-16T02:11:26.175Z,0
2018-02-16T02:12:06.556Z,0
2018-02-16T02:12:46.907Z,0
2018-02-16T02:13:27.388Z,0
2018-02-16T02:14:07.754Z,0
2018-02-16T02:14:48.205Z,0
2018-02-16T02:15:28.504Z,0
2018-02-16T02:16:08.949Z,0
2018-02-16T02:16:49.400Z,0
2018-02-16T02:17:29.774Z,0
2018-02-16T02:18:10.193Z,0
2018-02-16T02:18:50.690Z,0
2018-02-16T02:19:31.246Z,0
2018-02-16T02:20:11.620Z,0
2018-02-16T02:20:51.981Z,0
2018-02-16T02:21:32.389Z,0
2018-02-16T02:22:12.790Z,0
2018-02-16T02:22:53.181Z,0
2018-02-16T02:23:33.579Z,0
2018-02-16T02:24:14.082Z,0
2018-02-16T02:24:54.399Z,0
2018-02-16T02:25:34.778Z,0
2018-02-16T02:26:15.166Z,0
2018-02-16T02:26:55.640Z,0
2018-02-16T02:27:35.991Z,0
2018-02-16T02:28:16.408Z,0
2018-02-16T02:28:56.804Z,0
2018-02-16T02:29:37.203Z,0
2018-02-16T02:30:17.613Z,0
2018-02-16T02:30:57.998Z,0
2018-02-16T02:31:38.495Z,0
2018-02-16T02:32:18.826Z,0
2018-02-16T02:32:59.211Z,0
2018-02-16T02:33:39.571Z,0
2018-02-16T02:34:19.959Z,0
2018-02-16T02:35:00.385Z,0
2018-02-16T02:35:40.785Z,0
2018-02-16T02:36:21.145Z,0
2018-02-16T02:37:01.566Z,0
2018-02-16T02:37:41.953Z,0
2018-02-16T02:38:22.353Z,0
2018-02-16T02:39:02.752Z,0
2018-02-16T02:39:43.173Z,0
2018-02-16T02:40:23.556Z,0
2018-02-16T02:41:03.951Z,0
2018-02-16T02:41:44.248Z,0
2018-02-16T02:42:24.737Z,0
2018-02-16T02:43:05.121Z,0
2018-02-16T02:43:45.522Z,0
2018-02-16T02:44:25.961Z,0
2018-02-16T02:45:06.340Z,0
2018-02-16T02:45:46.623Z,0
2018-02-16T02:46:27.111Z,0
2018-02-16T02:47:07.457Z,0
2018-02-16T02:47:47.868Z,0
2018-02-16T02:48:28.246Z,0
2018-02-16T02:49:08.642Z,0
2018-02-16T02:49:49.072Z,0
2018-02-16T02:50:29.457Z,0
2018-02-16T02:51:09.869Z,0
2018-02-16T02:51:50.244Z,0
2018-02-16T02:52:30.657Z,0
2018-02-16T02:53:11.015Z,0
2018-02-16T02:53:51.462Z,0
2018-02-16T02:54:31.871Z,0
2018-02-16T02:55:12.243Z,0
2018-02-16T02:55:52.740Z,0
2018-02-16T02:56:33.151Z,0
2018-02-16T02:57:13.562Z,0
2018-02-16T02:57:53.863Z,0
2018-02-16T02:58:34.263Z,0
2018-02-16T02:59:14.678Z,0
2018-02-16T02:59:55.097Z,0
2018-02-16T03:00:35.469Z,0
2018-02-16T03:01:15.783Z,0
2018-02-16T03:01:56.240Z,0
2018-02-16T03:02:36.652Z,0
2018-02-16T03:03:17.087Z,0
2018-02-16T03:03:57.526Z,0
2018-02-16T03:04:37.844Z,0
2018-02-16T03:05:18.249Z,0
2018-02-16T03:05:58.683Z,0
2018-02-16T03:06:38.980Z,0
2018-02-16T03:07:19.538Z,0
2018-02-16T03:07:59.930Z,0
2018-02-16T03:08:40.337Z,0
2018-02-16T03:09:20.744Z,0
2018-02-16T03:10:01.133Z,0
2018-02-16T03:10:41.631Z,0
2018-02-16T03:11:21.986Z,0
2018-02-16T03:12:02.421Z,0
2018-02-16T03:12:42.810Z,0
2018-02-16T03:13:23.216Z,0
2018-02-16T03:14:03.588Z,0
2018-02-16T03:14:43.972Z,0
2018-02-16T03:15:24.396Z,0
2018-02-16T03:16:04.758Z,0
2018-02-16T03:16:45.122Z,0
2018-02-16T03:17:25.584Z,0
2018-02-16T03:18:05.926Z,0
2018-02-16T03:18:46.345Z,0
2018-02-16T03:19:26.767Z,0
2018-02-16T03:20:07.184Z,0
2018-02-16T03:20:47.557Z,0
2018-02-16T03:21:27.965Z,0
2018-02-16T03:22:08.320Z,0
2018-02-16T03:22:48.805Z,0
2018-02-16T03:23:29.124Z,0
2018-02-16T03:24:09.545Z,0
2018-02-16T03:24:49.995Z,0
2018-02-16T03:25:30.353Z,0
2018-02-16T03:26:10.750Z,0
2018-02-16T03:26:51.146Z,0
2018-02-16T03:27:31.551Z,0
2018-02-16T03:28:11.978Z,0
2018-02-16T03:28:52.316Z,0
2018-02-16T03:29:32.855Z,0
2018-02-16T03:30:13.245Z,0
2018-02-16T03:30:53.649Z,0
2018-02-16T03:31:34.024Z,0
2018-02-16T03:32:14.416Z,0
2018-02-16T03:32:54.876Z,0
2018-02-16T03:33:35.246Z,0
2018-02-16T03:34:15.665Z,0
2018-02-16T03:34:56.047Z,0
2018-02-16T03:35:36.505Z,0
2018-02-16T03:36:16.936Z,0
2018-02-16T03:36:57.315Z,0
2018-02-16T03:37:37.740Z,0
2018-02-16T03:38:18.177Z,0
2018-02-16T03:38:58.632Z,0
2018-02-16T03:39:39.023Z,0
2018-02-16T03:40:19.453Z,0
2018-02-16T03:40:59.764Z,0
2018-02-16T03:41:40.267Z,0
2018-02-16T03:42:20.554Z,0
2018-02-16T03:43:01.006Z,0
2018-02-16T03:43:41.333Z,0
2018-02-16T03:44:21.711Z,0
2018-02-16T03:45:02.120Z,0
2018-02-16T03:45:42.514Z,0
2018-02-16T03:46:22.953Z,0
2018-02-16T03:47:03.266Z,0
2018-02-16T03:47:43.700Z,0
2018-02-16T03:48:24.061Z,0
2018-02-16T03:49:04.497Z,0
2018-02-16T03:49:44.948Z,0
2018-02-16T03:50:25.313Z,0
2018-02-16T03:51:05.705Z,0
2018-02-16T03:51:46.075Z,0
2018-02-16T03:52:26.498Z,0
2018-02-16T03:53:06.919Z,0
2018-02-16T03:53:47.309Z,0
2018-02-16T03:54:27.683Z,0
2018-02-16T03:55:08.039Z,0
2018-02-16T03:55:48.476Z,0
2018-02-16T03:56:28.883Z,0
2018-02-16T03:57:09.248Z,0
2018-02-16T03:57:49.664Z,0
2018-02-16T03:58:30.023Z,0
2018-02-16T03:59:10.432Z,0
2018-02-16T03:59:50.835Z,0
2018-02-16T04:00:31.201Z,0
2018-02-16T04:01:11.647Z,0
2018-02-16T04:01:52.161Z,0
2018-02-16T04:02:32.573Z,0
2018-02-16T04:03:12.942Z,0
2018-02-16T04:03:53.353Z,0
2018-02-16T04:44:08.494Z,0
2018-02-16T04:45:01.688Z,0
2018-02-16T04:45:54.343Z,0
2018-02-16T04:48:39.710Z,0
2018-02-16T04:49:29.578Z,0
2018-02-16T04:51:40.410Z,0
2018-02-16T04:52:31.914Z,0
2018-02-16T04:53:15.789Z,0
2018-02-16T04:53:56.214Z,0
2018-02-16T04:54:36.609Z,0
2018-02-16T04:55:17.097Z,0
2018-02-16T04:55:57.796Z,0
2018-02-16T04:56:38.198Z,0
2018-02-16T04:57:18.599Z,0
2018-02-16T04:57:59.009Z,0
2018-02-16T04:58:39.372Z,0
2018-02-16T04:59:19.755Z,0
2018-02-16T05:00:00.164Z,0
2018-02-16T05:00:40.610Z,0
2018-02-16T05:01:20.926Z,0
2018-02-16T05:02:01.304Z,0
2018-02-16T05:02:41.694Z,0
2018-02-16T05:03:22.062Z,0
2018-02-16T05:04:02.485Z,0
2018-02-16T05:04:42.843Z,0
2018-02-16T05:05:23.319Z,0
2018-02-16T05:06:03.637Z,0
2018-02-16T05:06:44.292Z,0
2018-02-16T05:07:24.569Z,0
2018-02-16T05:08:05.051Z,0
2018-02-16T05:08:45.463Z,0
2018-02-16T05:09:25.784Z,0
2018-02-16T05:10:06.199Z,0
2018-02-16T05:10:46.548Z,0
2018-02-16T05:11:27.023Z,0
2018-02-16T05:12:07.378Z,0
2018-02-16T05:12:47.801Z,0
2018-02-16T05:13:28.219Z,0
2018-02-16T05:14:08.651Z,0
2018-02-16T05:14:49.017Z,0
2018-02-16T05:15:29.386Z,0
2018-02-16T05:16:09.826Z,0
2018-02-16T05:16:50.216Z,0
2018-02-16T05:17:30.628Z,0
2018-02-16T05:18:11.006Z,0
2018-02-16T05:18:51.493Z,0
2018-02-16T05:19:31.933Z,0
2018-02-16T05:20:12.277Z,0
2018-02-16T05:20:52.729Z,0
2018-02-16T05:21:33.982Z,0
2018-02-16T05:22:13.513Z,0
2018-02-16T05:22:53.914Z,0
2018-02-16T05:23:34.330Z,0
2018-02-16T05:24:14.625Z,0
2018-02-16T05:24:55.026Z,0
2018-02-16T05:25:35.461Z,0
2018-02-16T05:26:15.827Z,0
2018-02-16T05:26:56.277Z,0
2018-02-16T05:27:36.726Z,0
2018-02-16T05:28:17.167Z,0
2018-02-16T05:28:57.552Z,0
2018-02-16T05:29:38.075Z,0
2018-02-16T05:30:18.393Z,0
2018-02-16T05:30:58.764Z,0
2018-02-16T05:31:39.232Z,0
2018-02-16T05:32:19.596Z,0
2018-02-16T05:33:00.030Z,0
2018-02-16T05:33:40.462Z,0
2018-02-16T05:34:20.872Z,0
2018-02-16T05:35:01.281Z,0
2018-02-16T05:35:41.681Z,0
2018-02-16T05:36:22.032Z,0
2018-02-16T05:37:02.511Z,0
2018-02-16T05:37:42.920Z,0
2018-02-16T05:38:23.785Z,0
2018-02-16T05:39:04.263Z,0
2018-02-16T05:39:44.570Z,0
2018-02-16T05:40:25.010Z,0
2018-02-16T05:41:05.400Z,0
2018-02-16T05:41:45.841Z,0
2018-02-16T05:42:26.219Z,0
2018-02-16T05:43:06.613Z,0
2018-02-16T05:43:47.001Z,0
2018-02-16T05:44:27.429Z,0
2018-02-16T05:45:07.864Z,0
2018-02-16T05:45:48.236Z,0
2018-02-16T05:46:28.557Z,0
2018-02-16T05:47:09.032Z,0
2018-02-16T05:47:50.045Z,0
2018-02-16T05:48:29.867Z,0
2018-02-16T05:49:10.260Z,0
2018-02-16T05:49:50.644Z,0
2018-02-16T05:50:31.031Z,0
2018-02-16T05:51:11.418Z,0
2018-02-16T05:51:51.882Z,0
2018-02-16T05:52:32.323Z,0
2018-02-16T05:53:12.713Z,0
2018-02-16T05:53:53.378Z,0
2018-02-16T05:54:33.761Z,0
2018-02-16T05:55:14.130Z,0
2018-02-16T05:55:54.544Z,0
2018-02-16T05:56:34.893Z,0
2018-02-16T05:57:15.306Z,0
2018-02-16T05:57:55.791Z,0
2018-02-16T05:58:36.149Z,0
2018-02-16T05:59:16.594Z,0
2018-02-16T05:59:56.940Z,0
2018-02-16T06:00:37.392Z,0
2018-02-16T06:01:17.972Z,0
2018-02-16T06:01:58.388Z,0
2018-02-16T06:02:38.897Z,0
2018-02-16T06:03:19.263Z,0
2018-02-16T06:03:59.608Z,0
2018-02-16T06:04:40.107Z,0
2018-02-16T06:05:20.585Z,0
2018-02-16T06:06:00.953Z,0
2018-02-16T06:06:41.312Z,0
2018-02-16T06:07:21.639Z,0
2018-02-16T06:08:02.583Z,0
2018-02-16T06:08:43.035Z,0
2018-02-16T06:09:23.556Z,0
2018-02-16T06:10:03.966Z,0
2018-02-16T06:10:44.961Z,4
2018-02-16T06:11:26.866Z,4
2018-02-16T06:12:07.317Z,0
2018-02-16T06:12:48.640Z,0
2018-02-16T06:13:29.740Z,4
2018-02-16T06:14:11.746Z,4
2018-02-16T06:14:54.448Z,0
2018-02-16T06:15:34.832Z,4
2018-02-16T06:16:15.318Z,4
2018-02-16T06:16:55.629Z,0
2018-02-16T06:17:36.188Z,4
2018-02-16T06:18:16.596Z,4
2018-02-16T06:18:57.214Z,4
2018-02-16T06:19:38.213Z,4
2018-02-16T06:20:18.755Z,8
2018-02-16T06:20:59.384Z,8
2018-02-16T06:21:39.869Z,8
2018-02-16T06:22:20.504Z,8
2018-02-16T06:23:00.921Z,8
2018-02-16T06:23:41.406Z,8
2018-02-16T06:24:21.980Z,12
2018-02-16T06:25:03.719Z,12
2018-02-16T06:25:44.546Z,12
2018-02-16T06:26:24.941Z,16
2018-02-16T06:27:05.305Z,16
2018-02-16T06:27:45.730Z,20
2018-02-16T06:28:26.260Z,20
2018-02-16T06:29:06.780Z,20
2018-02-16T06:29:47.263Z,24
2018-02-16T06:32:19.700Z,32
2018-02-16T06:33:14.103Z,36
2018-02-16T06:34:07.557Z,40
2018-02-16T06:35:05.823Z,44
2018-02-16T06:36:03.872Z,48
2018-02-16T06:37:03.643Z,56
2018-02-16T06:37:57.182Z,64
2018-02-16T06:38:55.945Z,68
2018-02-16T06:39:53.371Z,72
2018-02-16T06:40:53.015Z,80
2018-02-16T06:41:48.554Z,88
2018-02-16T06:42:48.537Z,96
2018-02-16T06:43:43.561Z,104
2018-02-16T06:44:37.295Z,112
2018-02-16T06:45:35.854Z,124
2018-02-16T06:46:41.642Z,132
2018-02-16T06:47:41.248Z,140
2018-02-16T06:48:35.856Z,152
2018-02-16T06:49:27.920Z,160
2018-02-16T06:50:24.744Z,172
2018-02-16T06:51:17.959Z,184
2018-02-16T06:52:02.682Z,196
2018-02-16T06:52:43.186Z,208
2018-02-16T06:53:24.031Z,220
2018-02-16T06:54:04.594Z,236
2018-02-16T06:54:44.962Z,248
2018-02-16T06:55:25.588Z,264
2018-02-16T06:56:05.804Z,284
2018-02-16T06:56:46.441Z,304
2018-02-16T06:57:27.035Z,332
2018-02-16T06:58:08.200Z,356
2018-02-16T06:58:48.495Z,380
2018-02-16T06:59:29.125Z,408
2018-02-16T07:00:09.526Z,440
2018-02-16T07:00:50.349Z,464
2018-02-16T07:01:30.772Z,492
2018-02-16T07:02:11.234Z,528
2018-02-16T07:02:52.157Z,576
2018-02-16T07:03:32.912Z,620
2018-02-16T07:04:13.924Z,660
2018-02-16T07:04:54.944Z,704
2018-02-16T07:05:35.336Z,744
2018-02-16T07:06:16.063Z,792
2018-02-16T07:06:56.682Z,832
2018-02-16T07:07:37.548Z,868
2018-02-16T07:08:18.100Z,896
2018-02-16T07:08:58.663Z,944
2018-02-16T07:09:39.232Z,984
2018-02-16T07:10:19.757Z,1020
2018-02-16T07:10:59.973Z,1064
2018-02-16T07:11:40.488Z,1124
2018-02-16T07:12:21.117Z,1180
2018-02-16T07:13:01.622Z,1220
2018-02-16T07:13:42.610Z,1272
2018-02-16T07:14:37.860Z,1324
2018-02-16T07:29:43.263Z,2352
2018-02-16T07:30:43.084Z,2468
2018-02-16T07:33:45.961Z,3352
2018-02-16T07:34:42.141Z,3292
2018-02-16T07:35:49.349Z,2964
2018-02-16T07:36:47.977Z,2804
2018-02-16T07:37:47.558Z,2692
2018-02-16T07:38:40.758Z,2660
2018-02-16T07:39:36.531Z,2600
2018-02-16T07:40:30.022Z,2524
2018-02-16T07:41:23.805Z,2428
2018-02-16T07:42:22.341Z,2436
2018-02-16T07:43:18.141Z,2400
2018-02-16T07:44:19.756Z,2436
2018-02-16T07:45:20.630Z,2496
2018-02-16T07:46:13.471Z,2572
2018-02-16T07:47:08.446Z,2700
2018-02-16T07:48:13.379Z,2852
2018-02-16T07:49:24.215Z,2876
2018-02-16T07:50:26.876Z,2980
2018-02-16T07:51:21.223Z,3056
2018-02-16T07:52:19.050Z,3036
2018-02-16T07:53:14.028Z,2980
2018-02-16T07:54:14.870Z,2960
2018-02-16T08:00:15.449Z,3232
2018-02-16T08:11:26.738Z,2188
2018-02-16T08:12:21.450Z,1864
2018-02-16T08:13:16.680Z,1768
2018-02-16T08:14:20.128Z,1980
2018-02-16T08:15:15.611Z,2140
2018-02-16T08:16:13.162Z,2252
2018-02-16T08:19:17.740Z,2336
2018-02-16T08:20:14.676Z,2300
2018-02-16T08:21:13.779Z,2124
2018-02-16T08:22:18.758Z,1604
2018-02-16T08:23:14.627Z,1476
2018-02-16T08:24:10.462Z,1576
2018-02-16T08:25:05.866Z,1416
2018-02-16T08:25:59.675Z,1416
2018-02-16T08:40:00.440Z,1844
2018-02-16T08:40:54.266Z,2104
2018-02-16T08:41:50.455Z,2168
2018-02-16T08:48:39.121Z,2124
2018-02-16T08:49:51.464Z,2144
2018-02-16T09:02:13.248Z,1952
2018-02-16T09:02:53.495Z,2324
2018-02-16T09:03:36.093Z,2264
2018-02-16T09:04:17.079Z,2208
2018-02-16T09:04:57.583Z,2188
2018-02-16T09:05:38.602Z,2152
2018-02-16T09:06:18.687Z,2088
2018-02-16T09:07:02.795Z,1988
2018-02-16T09:07:43.291Z,1952
2018-02-16T09:08:24.151Z,1600
2018-02-16T09:09:04.389Z,1880
2018-02-16T09:09:44.920Z,1788
2018-02-16T09:10:25.956Z,1512
2018-02-16T09:11:06.873Z,1828
2018-02-16T09:11:47.600Z,1512
2018-02-16T09:12:30.860Z,1800
2018-02-16T09:13:12.220Z,1792
2018-02-16T09:13:54.104Z,1668
2018-02-16T09:14:34.500Z,1476
2018-02-16T09:15:15.531Z,1864
2018-02-16T09:15:56.621Z,1464
2018-02-16T09:16:37.685Z,1400
2018-02-16T09:17:18.466Z,1716
2018-02-16T09:17:59.072Z,1492
2018-02-16T09:18:40.631Z,1648
2018-02-16T09:19:21.135Z,1616
2018-02-16T09:20:02.615Z,1660
2018-02-16T09:20:42.568Z,1648
2018-02-16T09:21:23.196Z,1588
2018-02-16T09:22:04.686Z,1564
2018-02-16T09:22:45.613Z,1552
2018-02-16T09:23:25.338Z,1536
2018-02-16T09:24:05.862Z,1524
2018-02-16T09:24:47.133Z,1520
2018-02-16T09:25:28.663Z,1520
2018-02-16T09:26:08.555Z,1512
2018-02-16T09:26:50.100Z,1512
2018-02-16T09:27:30.880Z,1508
2018-02-16T09:28:11.164Z,1504
2018-02-16T09:28:52.849Z,1504
2018-02-16T09:29:32.324Z,1496
2018-02-16T09:30:12.807Z,1484
2018-02-16T09:30:53.388Z,1484
2018-02-16T09:31:34.285Z,1488
2018-02-16T09:32:18.098Z,1488
2018-02-16T09:32:57.933Z,1488
2018-02-16T09:33:38.912Z,1500
2018-02-16T09:34:19.031Z,1548
2018-02-16T09:35:00.121Z,1600
2018-02-16T09:35:40.593Z,1608
2018-02-16T09:36:21.997Z,1608
2018-02-16T09:37:06.994Z,1612
2018-02-16T09:37:48.275Z,1644
2018-02-16T09:38:29.228Z,1344
2018-02-16T09:39:09.638Z,1576
2018-02-16T09:39:51.069Z,1576
2018-02-16T09:40:36.515Z,1580
2018-02-16T09:41:19.447Z,1592
2018-02-16T09:42:00.888Z,1576
2018-02-16T09:42:41.139Z,1620
2018-02-16T09:43:22.063Z,1592
2018-02-16T09:44:03.163Z,1576
2018-02-16T09:44:43.706Z,1568
2018-02-16T09:45:24.168Z,1544
2018-02-16T09:46:05.703Z,1524
2018-02-16T09:46:47.417Z,1504
2018-02-16T09:47:28.473Z,1496
2018-02-16T09:48:11.343Z,1480
2018-02-16T09:48:49.536Z,1480
2018-02-16T09:49:33.994Z,1472
2018-02-16T09:50:14.237Z,1468
2018-02-16T09:50:55.159Z,1464
2018-02-16T09:51:35.356Z,1456
2018-02-16T09:52:15.781Z,1452
2018-02-16T09:52:56.179Z,1448
2018-02-16T09:53:37.856Z,1432
2018-02-16T09:54:18.342Z,1436
2018-02-16T09:54:58.698Z,1424
2018-02-16T09:55:39.146Z,1424
2018-02-16T09:56:21.205Z,1420
2018-02-16T09:57:01.609Z,1408
2018-02-16T09:57:42.904Z,1412
2018-02-16T09:58:23.148Z,1404
2018-02-16T09:59:04.212Z,1400
2018-02-16T09:59:44.610Z,1392
2018-02-16T10:00:24.957Z,1388
2018-02-16T10:01:05.570Z,1384
2018-02-16T10:01:46.564Z,1372
2018-02-16T10:02:26.904Z,1380
2018-02-16T10:03:08.755Z,1380
2018-02-16T10:03:49.331Z,1388
2018-02-16T10:04:33.492Z,1384
2018-02-16T10:05:13.319Z,1376
2018-02-16T10:48:09.570Z,1832
2018-02-16T10:48:50.484Z,1736
2018-02-16T10:49:31.560Z,1700
2018-02-16T10:50:12.175Z,1656
2018-02-16T10:50:54.756Z,1620
2018-02-16T10:53:35.745Z,1052
2018-02-16T10:54:17.957Z,1124
2018-02-16T10:54:59.857Z,1212
2018-02-16T10:55:42.807Z,1652
2018-02-16T10:56:23.236Z,1652
2018-02-16T10:57:05.496Z,1476
2018-02-16T10:57:48.062Z,1220
2018-02-16T10:58:28.666Z,1136
2018-02-16T10:59:10.137Z,1152
2018-02-16T10:59:51.286Z,1080
2018-02-16T11:00:31.728Z,1452
2018-02-16T11:01:13.859Z,1184
2018-02-16T11:01:54.558Z,1156
2018-02-16T11:02:35.432Z,1224
2018-02-16T11:03:16.050Z,1220
2018-02-16T11:03:56.559Z,1584
2018-02-16T11:04:37.925Z,1528
2018-02-16T11:05:17.877Z,1516
2018-02-16T11:05:58.686Z,1524
2018-02-16T11:06:39.042Z,1528
2018-02-16T11:07:20.299Z,1540
2018-02-16T11:08:01.051Z,1488
2018-02-16T11:08:43.566Z,1592
2018-02-16T11:09:24.132Z,1620
2018-02-16T11:10:04.552Z,1720
2018-02-16T11:10:44.957Z,1800
2018-02-16T11:11:26.414Z,1688
2018-02-16T11:12:06.802Z,1612
2018-02-16T11:12:48.906Z,1596
2018-02-16T11:13:29.137Z,1740
2018-02-16T11:14:10.848Z,1872
2018-02-16T11:14:51.577Z,1832
2018-02-16T11:15:33.085Z,1748
2018-02-16T11:16:13.167Z,1632
2018-02-16T11:16:53.732Z,1552
2018-02-16T11:17:34.093Z,1520
2018-02-16T11:18:15.855Z,1488
2018-02-16T11:18:56.730Z,1460
2018-02-16T11:19:37.222Z,1420
2018-02-16T11:20:17.963Z,1416
2018-02-16T11:20:58.406Z,1424
2018-02-16T11:21:39.066Z,1556
2018-02-16T11:22:20.334Z,1640
2018-02-16T11:23:00.600Z,1724
2018-02-16T11:23:41.011Z,1656
2018-02-16T11:24:21.368Z,1560
2018-02-16T11:25:03.377Z,1636
2018-02-16T11:25:43.426Z,1704
2018-02-16T11:26:23.819Z,1668
2018-02-16T11:27:04.558Z,1660
2018-02-16T11:27:46.640Z,1740
2018-02-16T11:28:28.805Z,1704
2018-02-16T11:29:09.475Z,1688
2018-02-16T11:29:50.226Z,1608
2018-02-16T11:30:31.321Z,1540
2018-02-16T11:31:11.652Z,1488
2018-02-16T11:31:51.888Z,1436
2018-02-16T11:32:32.319Z,1396
2018-02-16T11:33:12.664Z,1360
2018-02-16T11:33:53.068Z,1328
2018-02-16T11:34:33.889Z,1312
2018-02-16T11:35:15.156Z,1300
2018-02-16T11:35:55.500Z,1300
2018-02-16T11:36:36.151Z,1324
2018-02-16T11:37:16.971Z,1340
2018-02-16T11:37:58.319Z,1400
2018-02-16T11:38:38.197Z,1432
2018-02-16T11:39:18.858Z,1400
2018-02-16T11:39:59.914Z,1392
2018-02-16T11:40:40.797Z,1376
2018-02-16T11:41:22.586Z,1392
2018-02-16T11:42:03.872Z,1412
2018-02-16T11:42:44.994Z,1428
2018-02-16T11:43:25.613Z,1588
2018-02-16T11:44:05.990Z,1648
2018-02-16T11:44:46.792Z,1700
2018-02-16T11:45:27.407Z,1700
2018-02-16T11:46:07.996Z,1600
2018-02-16T11:46:48.697Z,1612
2018-02-16T11:47:29.049Z,1688
2018-02-16T11:48:09.652Z,1768
2018-02-16T11:48:50.159Z,1772
2018-02-16T11:49:32.039Z,1756
2018-02-16T11:50:12.536Z,1648
2018-02-16T11:50:53.870Z,1584
2018-02-16T11:51:36.616Z,1544
2018-02-16T11:52:19.745Z,1560
2018-02-16T11:53:00.104Z,1700
2018-02-16T11:53:40.681Z,1724
2018-02-16T11:54:21.111Z,1612
2018-02-16T11:55:01.574Z,1612
2018-02-16T11:55:41.962Z,1632
2018-02-16T11:56:22.599Z,1720
2018-02-16T11:57:03.478Z,1900
2018-02-16T11:57:44.128Z,2000
2018-02-16T11:58:24.960Z,1968
2018-02-16T11:59:05.355Z,1952
2018-02-16T11:59:45.891Z,1896
2018-02-16T12:00:26.264Z,1860
2018-02-16T12:01:06.666Z,1848
2018-02-16T12:01:47.088Z,1900
2018-02-16T12:02:27.803Z,1956
2018-02-16T12:03:07.981Z,1932
2018-02-16T12:03:48.610Z,1904
2018-02-16T12:04:29.663Z,1916
2018-02-16T12:05:10.164Z,1892
2018-02-16T12:05:51.016Z,1768
2018-02-16T12:06:31.358Z,1880
2018-02-16T12:07:14.213Z,2044
2018-02-16T12:07:54.576Z,2052
2018-02-16T12:08:35.632Z,1964
2018-02-16T12:09:16.448Z,1900
2018-02-16T12:09:57.093Z,1900
2018-02-16T12:10:38.108Z,1948
2018-02-16T12:11:18.992Z,1912
2018-02-16T12:11:59.525Z,1804
2018-02-16T12:12:40.182Z,1764
2018-02-16T12:13:20.584Z,1784
2018-02-16T12:14:01.398Z,1792
2018-02-16T12:14:42.268Z,1852
2018-02-16T12:15:22.963Z,1848
2018-02-16T12:16:03.248Z,1892
2018-02-16T12:16:43.688Z,1908
2018-02-16T12:17:24.098Z,1912
2018-02-16T12:18:04.667Z,1952
2018-02-16T12:18:45.292Z,1908
2018-02-16T12:19:26.143Z,1936
2018-02-16T12:20:07.152Z,1984
2018-02-16T12:20:48.780Z,1936
2018-02-16T12:21:29.860Z,1932
2018-02-16T12:22:10.324Z,1908
2018-02-16T12:22:51.713Z,1820
2018-02-16T12:23:32.444Z,1736
2018-02-16T12:24:12.945Z,1696
2018-02-16T12:24:53.934Z,1644
2018-02-16T12:25:34.301Z,1588
2018-02-16T12:26:14.715Z,1580
2018-02-16T12:26:56.386Z,1608
2018-02-16T12:27:38.849Z,1580
2018-02-16T12:28:20.606Z,1556
2018-02-16T12:29:01.306Z,1532